createdAt,value
2018-07-22T00:00:50.649Z,96.98
2018-07-22T00:03:19.741Z,97.62
2018-07-22T00:05:48.825Z,97.70
2018-07-22T00:08:17.997Z,97.23
2018-07-22T00:10:47.104Z,97.73
2018-07-22T00:13:16.183Z,97.49
2018-07-22T00:15:46.055Z,97.81
2018-07-22T00:18:15.110Z,97.76
2018-07-22T00:20:45.062Z,97.34
2018-07-22T00:23:14.898Z,97.86
2018-07-22T00:25:44.948Z,97.68
2018-07-22T00:28:14.862Z,98.08
2018-07-22T00:30:45.034Z,97.65
2018-07-22T00:33:15.049Z,98.00
2018-07-22T00:35:45.368Z,97.79
2018-07-22T00:38:14.910Z,97.25
2018-07-22T00:40:45.159Z,97.52
2018-07-22T00:43:14.989Z,97.25
2018-07-22T00:45:45.467Z,97.82
2018-07-22T00:48:14.952Z,98.16
2018-07-22T00:50:44.032Z,97.52
2018-07-22T00:53:13.169Z,97.97
2018-07-22T00:55:42.644Z,98.44
2018-07-22T00:58:11.756Z,98.17
2018-07-22T01:00:41.154Z,98.12
2018-07-22T01:03:10.346Z,98.08
2018-07-22T01:05:39.381Z,97.95
2018-07-22T01:08:08.558Z,97.88
2018-07-22T01:10:37.653Z,98.35
2018-07-22T01:13:07.195Z,98.35
2018-07-22T01:15:36.515Z,97.59
2018-07-22T01:18:05.901Z,97.52
2018-07-22T01:20:34.982Z,97.59
2018-07-22T01:23:04.282Z,98.24
2018-07-22T01:25:33.492Z,97.79
2018-07-22T01:28:02.556Z,97.87
2018-07-22T01:30:32.073Z,98.25
2018-07-22T01:33:01.147Z,97.90
2018-07-22T01:35:30.279Z,98.29
2018-07-22T01:37:59.331Z,97.65
2018-07-22T01:40:28.632Z,97.79
2018-07-22T01:42:57.972Z,97.64
2018-07-22T01:45:27.837Z,98.40
2018-07-22T01:47:57.343Z,98.09
2018-07-22T01:50:26.473Z,98.46
2018-07-22T01:52:55.546Z,99.00
2018-07-22T01:55:24.630Z,98.61
2018-07-22T01:57:54.217Z,99.52
2018-07-22T02:00:23.310Z,99.51
2018-07-22T02:02:52.809Z,100.00
2018-07-22T02:05:21.902Z,100.00
2018-07-22T02:07:51.510Z,100.00
2018-07-22T02:10:20.933Z,100.00
2018-07-22T02:12:50.432Z,100.00
2018-07-22T02:15:19.529Z,100.00
2018-07-22T02:17:48.581Z,100.00
2018-07-22T02:20:17.684Z,100.00
2018-07-22T02:22:47.598Z,100.00
2018-07-22T02:25:16.945Z,100.00
2018-07-22T02:27:46.214Z,100.00
2018-07-22T02:30:16.528Z,100.00
2018-07-22T02:32:46.092Z,100.00
2018-07-22T02:35:16.177Z,100.00
2018-07-22T02:37:46.204Z,100.00
2018-07-22T02:40:16.598Z,100.00
2018-07-22T02:42:46.162Z,100.00
2018-07-22T02:45:16.418Z,100.00
2018-07-22T02:47:46.420Z,100.00
2018-07-22T02:50:16.540Z,100.00
2018-07-22T02:52:46.315Z,100.00
2018-07-22T02:55:17.742Z,100.00
2018-07-22T02:57:46.874Z,100.00
2018-07-22T03:00:16.659Z,100.00
2018-07-22T03:02:46.562Z,100.00
2018-07-22T03:05:16.510Z,100.00
2018-07-22T03:07:46.508Z,100.00
2018-07-22T03:10:16.450Z,100.00
2018-07-22T03:12:46.499Z,100.00
2018-07-22T03:15:15.853Z,100.00
2018-07-22T03:17:44.923Z,100.00
2018-07-22T03:20:13.996Z,100.00
2018-07-22T03:22:43.032Z,100.00
2018-07-22T03:25:12.234Z,100.00
2018-07-22T03:27:41.614Z,100.00
2018-07-22T03:30:10.914Z,100.00
2018-07-22T03:32:39.969Z,100.00
2018-07-22T03:35:09.063Z,100.00
2018-07-22T03:37:38.084Z,100.00
2018-07-22T03:40:07.274Z,100.00
2018-07-22T03:42:36.351Z,100.00
2018-07-22T03:45:05.852Z,100.00
2018-07-22T03:47:35.068Z,100.00
2018-07-22T03:50:05.983Z,100.00
2018-07-22T03:52:35.153Z,100.00
2018-07-22T03:55:04.937Z,100.00
2018-07-22T03:57:34.180Z,100.00
2018-07-22T04:00:04.119Z,100.00
2018-07-22T04:02:33.177Z,100.00
2018-07-22T04:05:02.293Z,100.00
2018-07-22T04:07:31.798Z,100.00
2018-07-22T04:10:01.299Z,100.00
2018-07-22T04:12:30.380Z,100.00
2018-07-22T04:14:59.905Z,100.00
2018-07-22T04:17:28.980Z,100.00
2018-07-22T04:19:58.255Z,100.00
2018-07-22T04:22:27.597Z,100.00
2018-07-22T04:24:56.937Z,100.00
2018-07-22T04:27:26.151Z,100.00
2018-07-22T04:29:55.231Z,100.00
2018-07-22T04:32:24.415Z,100.00
2018-07-22T04:34:53.543Z,100.00
2018-07-22T04:37:22.609Z,100.00
2018-07-22T04:39:51.693Z,100.00
2018-07-22T04:42:20.761Z,100.00
2018-07-22T04:44:50.045Z,100.00
2018-07-22T04:47:19.162Z,100.00
2018-07-22T04:49:48.468Z,100.00
2018-07-22T04:52:17.647Z,100.00
2018-07-22T04:54:47.779Z,100.00
2018-07-22T04:57:17.859Z,100.00
2018-07-22T04:59:48.149Z,100.00
2018-07-22T05:02:18.074Z,100.00
2018-07-22T05:04:48.007Z,100.00
2018-07-22T05:07:17.952Z,100.00
2018-07-22T05:09:47.839Z,100.00
2018-07-22T05:12:18.065Z,100.00
2018-07-22T05:14:48.113Z,100.00
2018-07-22T05:17:18.301Z,100.00
2018-07-22T05:19:47.903Z,100.00
2018-07-22T05:41:37.111Z,100.00
2018-07-22T05:44:06.873Z,100.00
2018-07-22T05:46:36.224Z,100.00
2018-07-22T05:49:05.823Z,100.00
2018-07-22T05:51:35.049Z,100.00
2018-07-22T05:54:04.252Z,100.00
2018-07-22T05:56:33.311Z,100.00
2018-07-22T05:59:02.396Z,100.00
2018-07-22T06:01:31.800Z,100.00
2018-07-22T06:04:00.928Z,100.00
2018-07-22T06:06:30.396Z,100.00
2018-07-22T06:08:59.484Z,99.79
2018-07-22T06:11:28.602Z,100.00
2018-07-22T06:13:57.759Z,100.00
2018-07-22T06:16:27.212Z,100.00
2018-07-22T06:18:56.651Z,100.00
2018-07-22T06:21:25.794Z,100.00
2018-07-22T06:23:54.972Z,100.00
2018-07-22T06:26:24.051Z,100.00
2018-07-22T06:28:54.488Z,100.00
2018-07-22T06:31:23.841Z,100.00
2018-07-22T06:33:52.947Z,100.00
2018-07-22T06:36:22.135Z,100.00
2018-07-22T06:38:51.560Z,100.00
2018-07-22T06:41:21.300Z,100.00
2018-07-22T06:43:50.414Z,100.00
2018-07-22T06:46:20.075Z,100.00
2018-07-22T06:48:49.987Z,100.00
2018-07-22T06:51:20.264Z,100.00
2018-07-22T06:53:50.166Z,100.00
2018-07-22T06:56:20.066Z,100.00
2018-07-22T06:58:50.060Z,100.00
2018-07-22T07:01:19.990Z,100.00
2018-07-22T07:03:50.385Z,100.00
2018-07-22T07:06:19.922Z,100.00
2018-07-22T07:08:49.977Z,100.00
2018-07-22T07:11:20.101Z,100.00
2018-07-22T07:13:50.037Z,100.00
2018-07-22T07:16:51.856Z,100.00
2018-07-22T07:19:20.923Z,100.00
2018-07-22T07:21:50.104Z,100.00
2018-07-22T07:24:20.377Z,100.00
2018-07-22T07:46:09.842Z,100.00
2018-07-22T07:48:38.996Z,100.00
2018-07-22T07:51:08.498Z,100.00
2018-07-22T07:53:37.922Z,100.00
2018-07-22T07:56:07.477Z,100.00
2018-07-22T07:58:36.566Z,100.00
2018-07-22T08:01:05.684Z,100.00
2018-07-22T08:03:34.789Z,100.00
2018-07-22T08:06:03.954Z,100.00
2018-07-22T08:08:33.055Z,100.00
2018-07-22T08:11:02.168Z,100.00
2018-07-22T08:13:31.298Z,99.73
2018-07-22T08:16:00.690Z,99.68
2018-07-22T08:18:30.106Z,99.25
2018-07-22T08:20:59.208Z,100.00
2018-07-22T08:23:28.342Z,99.42
2018-07-22T08:25:57.728Z,100.00
2018-07-22T08:28:37.926Z,99.24
2018-07-22T08:31:07.385Z,99.35
2018-07-22T08:33:36.476Z,98.69
2018-07-22T08:36:05.768Z,98.16
2018-07-22T08:38:35.264Z,97.70
2018-07-22T08:41:04.836Z,97.52
2018-07-22T08:43:33.862Z,98.09
2018-07-22T08:46:02.991Z,98.97
2018-07-22T08:48:32.463Z,97.85
2018-07-22T08:51:02.141Z,97.59
2018-07-22T08:53:31.921Z,97.85
2018-07-22T08:56:02.204Z,98.01
2018-07-22T08:58:31.337Z,96.87
2018-07-22T09:01:00.404Z,96.91
2018-07-22T09:03:29.468Z,97.61
2018-07-22T09:05:58.595Z,96.73
2018-07-22T09:08:27.711Z,97.19
2018-07-22T09:10:57.283Z,96.49
2018-07-22T09:13:26.711Z,96.97
2018-07-22T09:15:56.069Z,97.42
2018-07-22T09:18:25.399Z,97.22
2018-07-22T09:20:54.497Z,97.33
2018-07-22T09:23:24.016Z,95.87
2018-07-22T09:25:53.426Z,95.80
2018-07-22T09:28:22.562Z,96.26
2018-07-22T09:30:52.513Z,95.56
2018-07-22T09:33:22.732Z,95.62
2018-07-22T09:35:52.441Z,95.47
2018-07-22T09:38:22.473Z,95.37
2018-07-22T09:40:52.835Z,95.38
2018-07-22T09:43:22.923Z,95.23
2018-07-22T09:45:52.514Z,95.88
2018-07-22T09:48:22.543Z,95.94
2018-07-22T09:50:52.653Z,95.71
2018-07-22T09:53:22.921Z,95.58
2018-07-22T09:55:52.667Z,95.83
2018-07-22T09:58:22.796Z,96.15
2018-07-22T10:00:53.739Z,95.84
2018-07-22T10:03:24.869Z,96.57
2018-07-22T10:05:54.117Z,96.81
2018-07-22T10:08:23.231Z,96.92
2018-07-22T10:10:53.169Z,98.44
2018-07-22T10:13:23.144Z,98.12
2018-07-22T10:15:53.327Z,97.67
2018-07-22T10:18:23.350Z,98.50
2018-07-22T10:20:53.039Z,98.32
2018-07-22T10:23:23.124Z,97.68
2018-07-22T10:25:53.207Z,97.48
2018-07-22T10:28:23.308Z,97.57
2018-07-22T10:30:53.227Z,97.20
2018-07-22T10:33:23.678Z,96.22
2018-07-22T10:35:53.259Z,96.50
2018-07-22T10:38:23.957Z,95.47
2018-07-22T10:40:53.414Z,95.57
2018-07-22T10:43:23.304Z,94.91
2018-07-22T10:45:53.550Z,94.51
2018-07-22T10:48:23.273Z,95.03
2018-07-22T10:50:53.489Z,93.78
2018-07-22T10:53:23.798Z,93.76
2018-07-22T10:55:53.608Z,92.83
2018-07-22T10:58:24.182Z,93.63
2018-07-22T11:00:53.431Z,93.82
2018-07-22T11:03:23.522Z,93.96
2018-07-22T11:05:53.810Z,93.84
2018-07-22T11:08:23.689Z,93.48
2018-07-22T11:10:53.435Z,93.90
2018-07-22T11:13:23.568Z,94.42
2018-07-22T11:15:53.483Z,93.95
2018-07-22T11:18:23.774Z,93.41
2018-07-22T11:20:53.528Z,93.96
2018-07-22T11:23:23.925Z,92.85
2018-07-22T11:25:54.007Z,92.87
2018-07-22T11:28:23.487Z,91.85
2018-07-22T11:30:53.675Z,92.18
2018-07-22T11:33:24.321Z,91.45
2018-07-22T11:35:53.685Z,91.02
2018-07-22T11:38:23.877Z,91.66
2018-07-22T11:40:53.803Z,91.85
2018-07-22T11:43:24.087Z,92.30
2018-07-22T11:45:54.308Z,92.60
2018-07-22T11:48:24.389Z,91.70
2018-07-22T11:50:53.796Z,91.14
2018-07-22T11:53:23.905Z,91.57
2018-07-22T11:55:54.153Z,90.48
2018-07-22T11:58:24.085Z,91.64
2018-07-22T12:00:53.799Z,91.52
2018-07-22T12:03:24.211Z,91.94
2018-07-22T12:05:53.893Z,93.04
2018-07-22T12:08:24.146Z,93.55
2018-07-22T12:10:53.990Z,93.43
2018-07-22T12:13:24.396Z,93.31
2018-07-22T12:15:53.977Z,92.78
2018-07-22T12:18:24.212Z,93.09
2018-07-22T12:20:54.017Z,93.47
2018-07-22T12:23:24.025Z,94.41
2018-07-22T12:25:54.158Z,95.36
2018-07-22T12:28:24.138Z,95.91
2018-07-22T12:30:54.437Z,95.81
2018-07-22T12:33:24.128Z,95.59
2018-07-22T12:35:54.353Z,95.80
2018-07-22T12:38:24.108Z,96.18
2018-07-22T12:40:54.280Z,97.12
2018-07-22T12:43:24.281Z,97.15
2018-07-22T12:45:54.559Z,95.72
2018-07-22T12:48:24.096Z,95.68
2018-07-22T12:50:54.621Z,96.00
2018-07-22T12:53:24.337Z,95.75
2018-07-22T12:55:54.581Z,95.63
2018-07-22T12:58:24.232Z,94.60
2018-07-22T13:00:54.420Z,94.38
2018-07-22T13:03:24.435Z,93.93
2018-07-22T13:05:54.337Z,93.75
2018-07-22T13:08:24.620Z,92.90
2018-07-22T13:10:54.524Z,92.78
2018-07-22T13:13:24.646Z,91.54
2018-07-22T13:15:54.710Z,91.22
2018-07-22T13:18:24.529Z,91.58
2018-07-22T13:20:54.767Z,91.77
2018-07-22T13:23:24.705Z,92.38
2018-07-22T13:25:54.452Z,93.35
2018-07-22T13:28:24.486Z,93.16
2018-07-22T13:30:54.651Z,93.04
2018-07-22T13:33:24.584Z,93.07
2018-07-22T13:35:54.776Z,94.20
2018-07-22T13:38:25.242Z,92.56
2018-07-22T13:40:54.695Z,93.11
2018-07-22T13:43:24.891Z,92.34
2018-07-22T13:45:54.562Z,92.58
2018-07-22T13:48:24.881Z,91.16
2018-07-22T13:50:54.715Z,92.10
2018-07-22T13:53:25.057Z,92.34
2018-07-22T13:55:54.656Z,91.95
2018-07-22T13:58:24.856Z,92.19
2018-07-22T14:00:54.796Z,90.75
2018-07-22T14:03:24.814Z,91.52
2018-07-22T14:05:54.803Z,91.42
2018-07-22T14:08:24.796Z,88.69
2018-07-22T14:10:55.121Z,87.82
2018-07-22T14:13:25.144Z,87.05
2018-07-22T14:15:54.821Z,86.35
2018-07-22T14:18:24.756Z,86.46
2018-07-22T14:20:54.984Z,86.74
2018-07-22T14:23:25.210Z,85.92
2018-07-22T14:25:54.952Z,84.12
2018-07-22T14:28:24.881Z,83.57
2018-07-22T14:30:55.082Z,84.92
2018-07-22T14:33:25.378Z,85.78
2018-07-22T14:35:55.052Z,86.36
2018-07-22T14:38:25.197Z,85.30
2018-07-22T14:40:55.132Z,87.15
2018-07-22T14:43:25.502Z,86.53
2018-07-22T14:45:55.463Z,86.18
2018-07-22T14:48:25.348Z,85.89
2018-07-22T14:50:55.110Z,85.47
2018-07-22T14:53:25.616Z,83.64
2018-07-22T14:55:55.134Z,83.94
2018-07-22T14:58:25.322Z,84.16
2018-07-22T15:00:55.398Z,84.72
2018-07-22T15:03:25.586Z,82.59
2018-07-22T15:05:55.560Z,83.56
2018-07-22T15:08:25.339Z,84.11
2018-07-22T15:10:55.499Z,82.23
2018-07-22T15:13:25.576Z,82.21
2018-07-22T15:15:55.518Z,82.42
2018-07-22T15:18:25.358Z,82.47
2018-07-22T15:20:55.539Z,83.23
2018-07-22T15:23:25.604Z,83.48
2018-07-22T15:25:55.716Z,83.62
2018-07-22T15:28:25.589Z,82.84
2018-07-22T15:30:55.975Z,82.86
2018-07-22T15:33:25.750Z,83.38
2018-07-22T15:35:55.664Z,83.19
2018-07-22T15:38:25.536Z,83.36
2018-07-22T15:40:55.620Z,83.96
2018-07-22T15:43:25.943Z,82.63
2018-07-22T15:45:55.693Z,83.48
2018-07-22T15:48:25.854Z,81.90
2018-07-22T15:50:55.978Z,82.63
2018-07-22T15:53:25.999Z,83.46
2018-07-22T15:55:55.862Z,85.36
2018-07-22T15:58:25.962Z,84.47
2018-07-22T16:00:55.800Z,82.72
2018-07-22T16:03:25.698Z,84.78
2018-07-22T16:05:55.873Z,84.89
2018-07-22T16:08:25.963Z,84.09
2018-07-22T16:10:55.891Z,83.59
2018-07-22T16:13:25.993Z,82.67
2018-07-22T16:15:56.033Z,82.20
2018-07-22T16:18:26.436Z,83.09
2018-07-22T16:20:55.994Z,82.54
2018-07-22T16:23:26.128Z,83.62
2018-07-22T16:25:55.959Z,84.33
2018-07-22T16:28:26.139Z,83.76
2018-07-22T16:30:56.059Z,83.75
2018-07-22T16:33:26.114Z,82.62
2018-07-22T16:35:56.108Z,81.75
2018-07-22T16:38:26.192Z,83.14
2018-07-22T16:40:56.431Z,83.82
2018-07-22T16:43:26.393Z,83.04
2018-07-22T16:45:56.293Z,83.30
2018-07-22T16:48:26.596Z,84.35
2018-07-22T16:50:56.140Z,84.45
2018-07-22T16:53:26.448Z,84.82
2018-07-22T16:55:56.574Z,85.53
2018-07-22T16:58:26.385Z,85.86
2018-07-22T17:00:56.512Z,85.55
2018-07-22T17:03:26.738Z,86.21
2018-07-22T17:05:56.477Z,85.29
2018-07-22T17:08:26.546Z,86.61
2018-07-22T17:10:56.398Z,87.57
2018-07-22T17:13:26.616Z,87.31
2018-07-22T17:15:56.347Z,87.95
2018-07-22T17:18:26.886Z,87.71
2018-07-22T17:20:56.763Z,88.18
2018-07-22T17:23:27.072Z,88.39
2018-07-22T17:25:56.664Z,88.19
2018-07-22T17:28:26.893Z,88.74
2018-07-22T17:30:56.883Z,88.02
2018-07-22T17:33:26.578Z,88.18
2018-07-22T17:35:57.125Z,87.93
2018-07-22T17:38:26.828Z,88.21
2018-07-22T17:40:56.926Z,89.34
2018-07-22T17:43:26.678Z,89.63
2018-07-22T17:45:56.873Z,88.86
2018-07-22T17:48:26.857Z,89.38
2018-07-22T17:50:56.732Z,90.15
2018-07-22T17:53:27.554Z,89.79
2018-07-22T17:55:57.278Z,89.62
2018-07-22T17:58:26.798Z,89.93
2018-07-22T18:00:57.200Z,89.74
2018-07-22T18:03:29.298Z,90.12
2018-07-22T18:05:58.538Z,89.84
2018-07-22T18:08:27.983Z,89.96
2018-07-22T18:10:57.466Z,90.38
2018-07-22T18:13:27.443Z,90.85
2018-07-22T18:15:57.113Z,90.47
2018-07-22T18:18:27.233Z,90.99
2018-07-22T18:20:57.221Z,90.77
2018-07-22T18:23:27.570Z,91.62
2018-07-22T18:25:57.279Z,91.81
2018-07-22T18:28:27.198Z,91.09
2018-07-22T18:30:57.318Z,91.41
2018-07-22T18:33:27.408Z,91.22
2018-07-22T18:35:57.323Z,91.40
2018-07-22T18:38:28.143Z,91.61
2018-07-22T18:40:57.742Z,91.89
2018-07-22T18:43:29.652Z,92.34
2018-07-22T18:45:59.340Z,92.45
2018-07-22T18:48:29.271Z,92.72
2018-07-22T18:50:59.092Z,92.27
2018-07-22T18:53:28.690Z,92.58
2018-07-22T18:56:00.108Z,92.55
2018-07-22T18:58:31.880Z,93.00
2018-07-22T19:01:02.137Z,93.57
2018-07-22T19:03:31.589Z,94.13
2018-07-22T19:06:01.698Z,93.43
2018-07-22T19:08:32.408Z,93.66
2018-07-22T19:11:02.953Z,94.29
2018-07-22T19:13:33.028Z,94.45
2018-07-22T19:16:03.597Z,93.95
2018-07-22T19:18:34.163Z,94.78
2018-07-22T19:21:03.906Z,94.37
2018-07-22T19:23:34.831Z,95.11
2018-07-22T19:26:04.617Z,95.17
2018-07-22T19:28:35.445Z,95.20
2018-07-22T19:31:05.555Z,94.45
2018-07-22T19:33:35.623Z,95.32
2018-07-22T19:36:05.853Z,95.42
2018-07-22T19:38:36.143Z,95.87
2018-07-22T19:41:06.463Z,95.34
2018-07-22T19:43:36.676Z,95.44
2018-07-22T19:46:07.004Z,95.66
2018-07-22T19:48:37.513Z,95.71
2018-07-22T19:51:07.645Z,95.86
2018-07-22T19:53:37.872Z,95.96
2018-07-22T19:56:07.649Z,96.81
2018-07-22T19:58:38.508Z,96.97
2018-07-22T20:01:08.812Z,97.17
2018-07-22T20:03:39.685Z,97.16
2018-07-22T20:06:09.734Z,97.07
2018-07-22T20:08:39.878Z,96.75
2018-07-22T20:11:10.025Z,96.86
2018-07-22T20:13:39.881Z,97.65
2018-07-22T20:16:09.628Z,97.20
2018-07-22T20:18:38.989Z,97.29
2018-07-22T20:21:08.857Z,97.29
2018-07-22T20:23:38.324Z,97.74
2018-07-22T20:26:07.622Z,97.75
2018-07-22T20:28:37.005Z,98.28
2018-07-22T20:31:06.741Z,98.36
2018-07-22T20:33:35.835Z,98.51
2018-07-22T20:36:05.032Z,98.80
2018-07-22T20:38:34.196Z,98.88
2018-07-22T20:41:03.778Z,98.88
2018-07-22T20:43:32.916Z,98.14
2018-07-22T20:46:02.204Z,98.79
2018-07-22T20:48:31.355Z,98.45
2018-07-22T20:51:01.052Z,98.91
2018-07-22T20:53:30.543Z,98.32
2018-07-22T20:56:00.075Z,98.13
2018-07-22T20:58:30.322Z,99.15
2018-07-22T21:00:59.863Z,99.24
2018-07-22T21:03:29.347Z,99.11
2018-07-22T21:05:58.912Z,99.17
2018-07-22T21:08:28.964Z,99.39
2018-07-22T21:10:58.987Z,99.22
2018-07-22T21:13:29.202Z,99.02
2018-07-22T21:15:59.040Z,99.17
2018-07-22T21:18:29.341Z,98.94
2018-07-22T21:20:59.394Z,99.04
2018-07-22T21:23:29.665Z,99.44
2018-07-22T21:25:59.636Z,98.92
2018-07-22T21:28:29.462Z,99.09
2018-07-22T21:30:59.445Z,99.59
2018-07-22T21:33:29.734Z,99.45
2018-07-22T21:35:59.286Z,99.19
2018-07-22T21:38:29.527Z,99.26
2018-07-22T21:40:59.405Z,99.31
2018-07-22T21:43:29.823Z,99.37
2018-07-22T21:45:59.719Z,100.00
2018-07-22T21:48:29.521Z,100.00
2018-07-22T21:50:59.445Z,100.00
2018-07-22T21:53:29.891Z,100.00
2018-07-22T21:55:59.715Z,99.71
2018-07-22T21:58:29.563Z,100.00
2018-07-22T22:00:59.958Z,100.00
2018-07-22T22:03:29.618Z,100.00
2018-07-22T22:05:59.757Z,100.00
2018-07-22T22:08:29.608Z,100.00
2018-07-22T22:11:00.138Z,100.00
2018-07-22T22:13:29.694Z,100.00
2018-07-22T22:15:59.751Z,100.00
2018-07-22T22:18:29.909Z,100.00
2018-07-22T22:20:59.794Z,100.00
2018-07-22T22:23:30.117Z,100.00
2018-07-22T22:26:00.012Z,100.00
2018-07-22T22:28:30.026Z,100.00
2018-07-22T22:30:59.923Z,100.00
2018-07-22T22:33:30.185Z,100.00
2018-07-22T22:36:00.000Z,100.00
2018-07-22T22:38:30.329Z,100.00
2018-07-22T22:41:00.373Z,100.00
2018-07-22T22:43:30.261Z,100.00
2018-07-22T22:46:00.184Z,100.00
2018-07-22T22:48:30.423Z,100.00
2018-07-22T22:51:00.528Z,100.00
2018-07-22T22:53:30.341Z,100.00
2018-07-22T22:56:00.893Z,100.00
2018-07-22T22:58:41.214Z,100.00
2018-07-22T23:01:10.320Z,100.00
2018-07-22T23:03:39.790Z,100.00
2018-07-22T23:06:08.886Z,100.00
2018-07-22T23:08:38.014Z,100.00
2018-07-22T23:11:07.510Z,100.00
2018-07-22T23:13:36.575Z,100.00
2018-07-22T23:16:06.129Z,100.00
2018-07-22T23:18:35.216Z,100.00
2018-07-22T23:21:05.148Z,100.00
2018-07-22T23:23:34.643Z,100.00
2018-07-22T23:26:03.719Z,100.00
2018-07-22T23:28:32.785Z,100.00
2018-07-22T23:31:02.295Z,100.00
2018-07-22T23:33:31.748Z,100.00
2018-07-22T23:36:01.042Z,100.00
2018-07-22T23:38:30.881Z,100.00
2018-07-22T23:41:00.729Z,100.00
2018-07-22T23:43:30.741Z,100.00
2018-07-22T23:46:00.954Z,100.00
2018-07-22T23:48:30.939Z,100.00
2018-07-22T23:51:01.225Z,100.00
2018-07-22T23:53:31.166Z,100.00
2018-07-22T23:56:01.138Z,100.00
2018-07-22T23:58:31.404Z,100.00
